sensor_id;sensor_type;location;lat;lon;timestamp;P1;durP1;ratioP1;P2;durP2;ratioP2
8656;SDS011;4366;50.764;7.184;2023-07-31T00:03:45;1.70;;;1.60;;
8656;SDS011;4366;50.764;7.184;2023-07-31T00:08:47;1.63;;;1.50;;
8656;SDS011;4366;50.764;7.184;2023-07-31T00:13:50;1.40;;;1.30;;
8656;SDS011;4366;50.764;7.184;2023-07-31T00:18:51;3.47;;;1.70;;
8656;SDS011;4366;50.764;7.184;2023-07-31T00:23:53;1.77;;;1.67;;
8656;SDS011;4366;50.764;7.184;2023-07-31T00:28:55;2.00;;;1.40;;
8656;SDS011;4366;50.764;7.184;2023-07-31T00:33:56;3.37;;;1.60;;
8656;SDS011;4366;50.764;7.184;2023-07-31T00:38:58;2.03;;;1.63;;
8656;SDS011;4366;50.764;7.184;2023-07-31T00:44:00;3.13;;;1.73;;
8656;SDS011;4366;50.764;7.184;2023-07-31T00:49:02;1.80;;;1.30;;
8656;SDS011;4366;50.764;7.184;2023-07-31T00:54:04;1.90;;;1.63;;
8656;SDS011;4366;50.764;7.184;2023-07-31T00:59:07;1.90;;;1.40;;
8656;SDS011;4366;50.764;7.184;2023-07-31T01:04:09;1.70;;;1.40;;
8656;SDS011;4366;50.764;7.184;2023-07-31T01:09:21;1.30;;;1.13;;
8656;SDS011;4366;50.764;7.184;2023-07-31T01:14:30;2.07;;;1.47;;
8656;SDS011;4366;50.764;7.184;2023-07-31T01:19:32;1.77;;;1.40;;
8656;SDS011;4366;50.764;7.184;2023-07-31T01:29:39;1.23;;;1.20;;
8656;SDS011;4366;50.764;7.184;2023-07-31T01:34:47;1.30;;;1.20;;
8656;SDS011;4366;50.764;7.184;2023-07-31T01:39:49;1.23;;;1.17;;
8656;SDS011;4366;50.764;7.184;2023-07-31T01:44:53;2.10;;;1.27;;
8656;SDS011;4366;50.764;7.184;2023-07-31T01:49:54;1.67;;;1.17;;
8656;SDS011;4366;50.764;7.184;2023-07-31T01:54:57;2.10;;;1.60;;
8656;SDS011;4366;50.764;7.184;2023-07-31T01:59:59;1.20;;;1.20;;
8656;SDS011;4366;50.764;7.184;2023-07-31T02:05:00;2.10;;;1.20;;
8656;SDS011;4366;50.764;7.184;2023-07-31T02:10:02;1.53;;;1.43;;
8656;SDS011;4366;50.764;7.184;2023-07-31T02:15:04;2.07;;;1.87;;
8656;SDS011;4366;50.764;7.184;2023-07-31T02:20:06;1.93;;;1.50;;
8656;SDS011;4366;50.764;7.184;2023-07-31T02:25:08;1.37;;;1.23;;
8656;SDS011;4366;50.764;7.184;2023-07-31T02:30:11;1.83;;;1.07;;
8656;SDS011;4366;50.764;7.184;2023-07-31T02:35:12;1.53;;;1.40;;
8656;SDS011;4366;50.764;7.184;2023-07-31T02:40:16;2.70;;;1.70;;
8656;SDS011;4366;50.764;7.184;2023-07-31T02:45:18;1.77;;;1.50;;
8656;SDS011;4366;50.764;7.184;2023-07-31T02:50:20;1.70;;;1.50;;
8656;SDS011;4366;50.764;7.184;2023-07-31T02:55:22;1.80;;;1.70;;
8656;SDS011;4366;50.764;7.184;2023-07-31T03:00:24;1.50;;;1.40;;
8656;SDS011;4366;50.764;7.184;2023-07-31T03:05:25;3.77;;;1.60;;
8656;SDS011;4366;50.764;7.184;2023-07-31T03:10:28;1.60;;;1.50;;
8656;SDS011;4366;50.764;7.184;2023-07-31T03:15:29;2.93;;;1.80;;
8656;SDS011;4366;50.764;7.184;2023-07-31T03:20:31;1.70;;;1.53;;
8656;SDS011;4366;50.764;7.184;2023-07-31T03:25:33;1.93;;;1.50;;
8656;SDS011;4366;50.764;7.184;2023-07-31T03:30:35;2.03;;;1.80;;
8656;SDS011;4366;50.764;7.184;2023-07-31T03:35:39;1.60;;;1.50;;
8656;SDS011;4366;50.764;7.184;2023-07-31T03:40:41;2.43;;;1.60;;
8656;SDS011;4366;50.764;7.184;2023-07-31T03:45:42;2.37;;;2.03;;
8656;SDS011;4366;50.764;7.184;2023-07-31T03:50:45;2.10;;;1.63;;
8656;SDS011;4366;50.764;7.184;2023-07-31T03:55:46;1.97;;;1.60;;
8656;SDS011;4366;50.764;7.184;2023-07-31T04:00:48;1.53;;;1.40;;
8656;SDS011;4366;50.764;7.184;2023-07-31T04:05:50;2.23;;;1.70;;
8656;SDS011;4366;50.764;7.184;2023-07-31T04:10:52;3.70;;;1.50;;
8656;SDS011;4366;50.764;7.184;2023-07-31T04:15:53;1.80;;;1.47;;
8656;SDS011;4366;50.764;7.184;2023-07-31T04:20:55;1.70;;;1.30;;
8656;SDS011;4366;50.764;7.184;2023-07-31T04:25:57;2.17;;;1.70;;
8656;SDS011;4366;50.764;7.184;2023-07-31T04:30:59;3.00;;;2.00;;
8656;SDS011;4366;50.764;7.184;2023-07-31T04:36:00;2.27;;;1.50;;
8656;SDS011;4366;50.764;7.184;2023-07-31T04:41:02;1.80;;;1.57;;
8656;SDS011;4366;50.764;7.184;2023-07-31T04:46:05;2.27;;;1.73;;
8656;SDS011;4366;50.764;7.184;2023-07-31T04:51:07;2.50;;;1.50;;
8656;SDS011;4366;50.764;7.184;2023-07-31T04:56:08;1.63;;;1.53;;
8656;SDS011;4366;50.764;7.184;2023-07-31T05:01:10;3.53;;;1.60;;
8656;SDS011;4366;50.764;7.184;2023-07-31T05:06:11;2.10;;;1.63;;
8656;SDS011;4366;50.764;7.184;2023-07-31T05:11:15;1.80;;;1.47;;
8656;SDS011;4366;50.764;7.184;2023-07-31T05:16:17;1.63;;;1.53;;
8656;SDS011;4366;50.764;7.184;2023-07-31T05:21:18;2.60;;;1.57;;
8656;SDS011;4366;50.764;7.184;2023-07-31T05:26:20;2.27;;;1.80;;
8656;SDS011;4366;50.764;7.184;2023-07-31T05:31:22;1.63;;;1.53;;
8656;SDS011;4366;50.764;7.184;2023-07-31T05:36:23;2.20;;;1.57;;
8656;SDS011;4366;50.764;7.184;2023-07-31T05:41:25;2.27;;;1.40;;
8656;SDS011;4366;50.764;7.184;2023-07-31T05:46:27;1.57;;;1.47;;
8656;SDS011;4366;50.764;7.184;2023-07-31T05:51:29;1.70;;;1.60;;
8656;SDS011;4366;50.764;7.184;2023-07-31T05:56:30;2.53;;;1.67;;
8656;SDS011;4366;50.764;7.184;2023-07-31T06:01:33;2.50;;;1.50;;
8656;SDS011;4366;50.764;7.184;2023-07-31T06:06:35;1.70;;;1.40;;
8656;SDS011;4366;50.764;7.184;2023-07-31T06:11:37;2.93;;;1.70;;
8656;SDS011;4366;50.764;7.184;2023-07-31T06:16:39;2.07;;;1.53;;
8656;SDS011;4366;50.764;7.184;2023-07-31T06:21:41;1.83;;;1.70;;
8656;SDS011;4366;50.764;7.184;2023-07-31T06:26:46;1.77;;;1.47;;
8656;SDS011;4366;50.764;7.184;2023-07-31T06:31:47;2.20;;;2.00;;
8656;SDS011;4366;50.764;7.184;2023-07-31T06:36:49;2.40;;;1.73;;
8656;SDS011;4366;50.764;7.184;2023-07-31T06:41:51;2.33;;;1.90;;
8656;SDS011;4366;50.764;7.184;2023-07-31T06:46:53;1.93;;;1.70;;
8656;SDS011;4366;50.764;7.184;2023-07-31T06:51:55;2.80;;;1.80;;
8656;SDS011;4366;50.764;7.184;2023-07-31T06:56:56;1.60;;;1.50;;
8656;SDS011;4366;50.764;7.184;2023-07-31T07:01:58;1.63;;;1.53;;
8656;SDS011;4366;50.764;7.184;2023-07-31T07:07:00;2.10;;;1.63;;
8656;SDS011;4366;50.764;7.184;2023-07-31T07:12:01;1.60;;;1.50;;
8656;SDS011;4366;50.764;7.184;2023-07-31T07:17:03;2.33;;;2.00;;
8656;SDS011;4366;50.764;7.184;2023-07-31T07:22:05;1.60;;;1.50;;
8656;SDS011;4366;50.764;7.184;2023-07-31T07:27:07;1.47;;;1.37;;
8656;SDS011;4366;50.764;7.184;2023-07-31T07:32:09;1.57;;;1.47;;
8656;SDS011;4366;50.764;7.184;2023-07-31T07:37:11;2.20;;;1.90;;
8656;SDS011;4366;50.764;7.184;2023-07-31T07:42:13;2.80;;;1.80;;
8656;SDS011;4366;50.764;7.184;2023-07-31T07:47:14;1.87;;;1.77;;
8656;SDS011;4366;50.764;7.184;2023-07-31T07:52:16;2.20;;;1.77;;
8656;SDS011;4366;50.764;7.184;2023-07-31T07:57:18;10.97;;;3.53;;
8656;SDS011;4366;50.764;7.184;2023-07-31T08:02:19;10.80;;;3.10;;
8656;SDS011;4366;50.764;7.184;2023-07-31T08:07:21;3.03;;;1.97;;
8656;SDS011;4366;50.764;7.184;2023-07-31T08:12:24;2.07;;;1.57;;
8656;SDS011;4366;50.764;7.184;2023-07-31T08:17:26;2.43;;;2.10;;
8656;SDS011;4366;50.764;7.184;2023-07-31T08:22:28;2.97;;;1.93;;
8656;SDS011;4366;50.764;7.184;2023-07-31T08:27:29;3.37;;;2.27;;
8656;SDS011;4366;50.764;7.184;2023-07-31T08:32:31;20.07;;;5.83;;
8656;SDS011;4366;50.764;7.184;2023-07-31T08:37:33;4.23;;;1.97;;
8656;SDS011;4366;50.764;7.184;2023-07-31T08:42:42;2.47;;;1.73;;
8656;SDS011;4366;50.764;7.184;2023-07-31T08:47:51;1.63;;;1.50;;
8656;SDS011;4366;50.764;7.184;2023-07-31T08:52:53;3.00;;;2.07;;
8656;SDS011;4366;50.764;7.184;2023-07-31T08:57:58;2.57;;;1.80;;
8656;SDS011;4366;50.764;7.184;2023-07-31T09:08:05;1.33;;;1.23;;
8656;SDS011;4366;50.764;7.184;2023-07-31T09:13:07;1.63;;;1.47;;
8656;SDS011;4366;50.764;7.184;2023-07-31T09:18:13;1.60;;;1.50;;
8656;SDS011;4366;50.764;7.184;2023-07-31T09:23:18;2.03;;;1.83;;
8656;SDS011;4366;50.764;7.184;2023-07-31T09:28:23;4.00;;;1.77;;
8656;SDS011;4366;50.764;7.184;2023-07-31T09:33:32;2.13;;;1.70;;
8656;SDS011;4366;50.764;7.184;2023-07-31T09:38:34;1.40;;;1.30;;
8656;SDS011;4366;50.764;7.184;2023-07-31T09:43:36;1.87;;;1.40;;
8656;SDS011;4366;50.764;7.184;2023-07-31T09:48:39;3.60;;;1.73;;
8656;SDS011;4366;50.764;7.184;2023-07-31T09:53:41;3.87;;;1.53;;
8656;SDS011;4366;50.764;7.184;2023-07-31T09:58:51;2.40;;;1.80;;
8656;SDS011;4366;50.764;7.184;2023-07-31T10:03:53;2.00;;;1.90;;
8656;SDS011;4366;50.764;7.184;2023-07-31T10:08:55;1.73;;;1.57;;
8656;SDS011;4366;50.764;7.184;2023-07-31T10:13:57;2.57;;;1.47;;
8656;SDS011;4366;50.764;7.184;2023-07-31T10:18:59;1.60;;;1.50;;
8656;SDS011;4366;50.764;7.184;2023-07-31T10:24:02;1.43;;;1.30;;
8656;SDS011;4366;50.764;7.184;2023-07-31T10:29:05;3.63;;;1.50;;
8656;SDS011;4366;50.764;7.184;2023-07-31T10:34:07;2.03;;;1.63;;
8656;SDS011;4366;50.764;7.184;2023-07-31T10:44:44;1.60;;;1.50;;
8656;SDS011;4366;50.764;7.184;2023-07-31T10:49:48;1.30;;;1.23;;
8656;SDS011;4366;50.764;7.184;2023-07-31T10:54:49;3.37;;;1.50;;
8656;SDS011;4366;50.764;7.184;2023-07-31T10:59:51;1.37;;;1.20;;
8656;SDS011;4366;50.764;7.184;2023-07-31T11:05:20;1.40;;;1.30;;
8656;SDS011;4366;50.764;7.184;2023-07-31T11:10:23;2.97;;;1.17;;
8656;SDS011;4366;50.764;7.184;2023-07-31T11:15:27;1.77;;;0.90;;
8656;SDS011;4366;50.764;7.184;2023-07-31T11:20:32;0.97;;;0.90;;
8656;SDS011;4366;50.764;7.184;2023-07-31T11:25:34;0.87;;;0.87;;
8656;SDS011;4366;50.764;7.184;2023-07-31T11:30:36;0.80;;;0.80;;
8656;SDS011;4366;50.764;7.184;2023-07-31T11:40:46;1.03;;;0.90;;
8656;SDS011;4366;50.764;7.184;2023-07-31T11:45:49;0.83;;;0.73;;
8656;SDS011;4366;50.764;7.184;2023-07-31T11:50:59;0.70;;;0.70;;
8656;SDS011;4366;50.764;7.184;2023-07-31T11:56:02;0.70;;;0.70;;
8656;SDS011;4366;50.764;7.184;2023-07-31T12:01:07;3.10;;;0.93;;
8656;SDS011;4366;50.764;7.184;2023-07-31T12:06:09;1.37;;;0.83;;
8656;SDS011;4366;50.764;7.184;2023-07-31T12:11:11;0.60;;;0.60;;
8656;SDS011;4366;50.764;7.184;2023-07-31T12:16:13;0.90;;;0.80;;
8656;SDS011;4366;50.764;7.184;2023-07-31T12:21:14;0.83;;;0.83;;
8656;SDS011;4366;50.764;7.184;2023-07-31T12:26:17;0.70;;;0.70;;
8656;SDS011;4366;50.764;7.184;2023-07-31T12:31:19;0.80;;;0.80;;
8656;SDS011;4366;50.764;7.184;2023-07-31T12:36:22;1.47;;;1.27;;
8656;SDS011;4366;50.764;7.184;2023-07-31T12:41:25;1.47;;;1.37;;
8656;SDS011;4366;50.764;7.184;2023-07-31T12:46:28;2.37;;;1.50;;
8656;SDS011;4366;50.764;7.184;2023-07-31T12:51:29;2.67;;;1.63;;
8656;SDS011;4366;50.764;7.184;2023-07-31T12:56:31;1.27;;;1.20;;
8656;SDS011;4366;50.764;7.184;2023-07-31T13:01:33;1.67;;;1.57;;
8656;SDS011;4366;50.764;7.184;2023-07-31T13:06:34;2.33;;;1.80;;
8656;SDS011;4366;50.764;7.184;2023-07-31T13:11:36;1.43;;;1.33;;
8656;SDS011;4366;50.764;7.184;2023-07-31T13:16:38;1.73;;;1.63;;
8656;SDS011;4366;50.764;7.184;2023-07-31T13:21:40;1.77;;;1.67;;
8656;SDS011;4366;50.764;7.184;2023-07-31T13:26:41;2.33;;;1.97;;
8656;SDS011;4366;50.764;7.184;2023-07-31T13:31:43;1.73;;;1.63;;
8656;SDS011;4366;50.764;7.184;2023-07-31T13:36:45;2.73;;;1.80;;
8656;SDS011;4366;50.764;7.184;2023-07-31T13:41:47;1.80;;;1.70;;
8656;SDS011;4366;50.764;7.184;2023-07-31T13:46:49;1.20;;;1.20;;
8656;SDS011;4366;50.764;7.184;2023-07-31T13:51:50;1.30;;;1.20;;
8656;SDS011;4366;50.764;7.184;2023-07-31T13:56:52;1.58;;;1.48;;
8656;SDS011;4366;50.764;7.184;2023-07-31T14:01:54;1.40;;;1.30;;
8656;SDS011;4366;50.764;7.184;2023-07-31T14:06:56;1.30;;;1.20;;
8656;SDS011;4366;50.764;7.184;2023-07-31T14:11:58;1.77;;;1.10;;
8656;SDS011;4366;50.764;7.184;2023-07-31T14:16:59;1.20;;;1.10;;
8656;SDS011;4366;50.764;7.184;2023-07-31T14:22:02;1.73;;;1.38;;
8656;SDS011;4366;50.764;7.184;2023-07-31T14:27:11;1.15;;;1.08;;
8656;SDS011;4366;50.764;7.184;2023-07-31T14:32:13;1.38;;;1.27;;
8656;SDS011;4366;50.764;7.184;2023-07-31T14:37:15;1.03;;;1.03;;
8656;SDS011;4366;50.764;7.184;2023-07-31T14:42:16;3.00;;;1.30;;
8656;SDS011;4366;50.764;7.184;2023-07-31T14:47:19;0.90;;;0.90;;
8656;SDS011;4366;50.764;7.184;2023-07-31T14:52:21;1.40;;;1.30;;
8656;SDS011;4366;50.764;7.184;2023-07-31T14:57:23;1.37;;;1.27;;
8656;SDS011;4366;50.764;7.184;2023-07-31T15:02:27;0.53;;;0.53;;
8656;SDS011;4366;50.764;7.184;2023-07-31T15:07:29;1.07;;;1.07;;
8656;SDS011;4366;50.764;7.184;2023-07-31T15:12:31;1.10;;;1.10;;
8656;SDS011;4366;50.764;7.184;2023-07-31T15:17:33;0.83;;;0.83;;
8656;SDS011;4366;50.764;7.184;2023-07-31T15:22:34;1.43;;;1.33;;
8656;SDS011;4366;50.764;7.184;2023-07-31T15:27:36;1.30;;;1.20;;
8656;SDS011;4366;50.764;7.184;2023-07-31T15:32:37;1.50;;;1.37;;
8656;SDS011;4366;50.764;7.184;2023-07-31T15:37:40;0.97;;;0.97;;
8656;SDS011;4366;50.764;7.184;2023-07-31T15:42:41;1.40;;;1.17;;
8656;SDS011;4366;50.764;7.184;2023-07-31T15:47:43;1.10;;;1.10;;
8656;SDS011;4366;50.764;7.184;2023-07-31T15:52:45;1.33;;;1.20;;
8656;SDS011;4366;50.764;7.184;2023-07-31T15:57:47;0.90;;;0.90;;
8656;SDS011;4366;50.764;7.184;2023-07-31T16:02:49;1.93;;;1.23;;
8656;SDS011;4366;50.764;7.184;2023-07-31T16:07:50;1.50;;;1.30;;
8656;SDS011;4366;50.764;7.184;2023-07-31T16:12:52;1.60;;;1.30;;
8656;SDS011;4366;50.764;7.184;2023-07-31T16:17:54;1.53;;;1.43;;
8656;SDS011;4366;50.764;7.184;2023-07-31T16:22:58;1.47;;;1.37;;
8656;SDS011;4366;50.764;7.184;2023-07-31T16:28:01;1.50;;;1.40;;
8656;SDS011;4366;50.764;7.184;2023-07-31T16:33:03;1.90;;;1.50;;
8656;SDS011;4366;50.764;7.184;2023-07-31T16:38:05;2.53;;;1.70;;
8656;SDS011;4366;50.764;7.184;2023-07-31T16:43:07;1.70;;;1.60;;
8656;SDS011;4366;50.764;7.184;2023-07-31T16:48:08;1.63;;;1.50;;
8656;SDS011;4366;50.764;7.184;2023-07-31T16:53:10;2.57;;;1.53;;
8656;SDS011;4366;50.764;7.184;2023-07-31T16:58:12;1.83;;;1.73;;
8656;SDS011;4366;50.764;7.184;2023-07-31T17:03:14;1.60;;;1.50;;
8656;SDS011;4366;50.764;7.184;2023-07-31T17:08:16;2.20;;;1.77;;
8656;SDS011;4366;50.764;7.184;2023-07-31T17:13:18;2.83;;;1.53;;
8656;SDS011;4366;50.764;7.184;2023-07-31T17:18:21;2.10;;;1.80;;
8656;SDS011;4366;50.764;7.184;2023-07-31T17:23:23;1.73;;;1.63;;
8656;SDS011;4366;50.764;7.184;2023-07-31T17:28:24;1.67;;;1.57;;
8656;SDS011;4366;50.764;7.184;2023-07-31T17:33:26;3.10;;;1.60;;
8656;SDS011;4366;50.764;7.184;2023-07-31T17:38:27;2.03;;;1.83;;
8656;SDS011;4366;50.764;7.184;2023-07-31T17:43:29;1.93;;;1.50;;
8656;SDS011;4366;50.764;7.184;2023-07-31T17:48:32;2.10;;;1.90;;
8656;SDS011;4366;50.764;7.184;2023-07-31T17:53:34;1.80;;;1.63;;
8656;SDS011;4366;50.764;7.184;2023-07-31T17:58:36;1.87;;;1.60;;
8656;SDS011;4366;50.764;7.184;2023-07-31T18:03:37;1.30;;;1.20;;
8656;SDS011;4366;50.764;7.184;2023-07-31T18:08:39;1.70;;;1.60;;
8656;SDS011;4366;50.764;7.184;2023-07-31T18:13:40;1.60;;;1.50;;
8656;SDS011;4366;50.764;7.184;2023-07-31T18:18:42;1.60;;;1.30;;
8656;SDS011;4366;50.764;7.184;2023-07-31T18:23:44;1.63;;;1.17;;
8656;SDS011;4366;50.764;7.184;2023-07-31T18:28:46;1.30;;;1.20;;
8656;SDS011;4366;50.764;7.184;2023-07-31T18:33:47;1.40;;;1.30;;
8656;SDS011;4366;50.764;7.184;2023-07-31T18:38:49;1.30;;;1.20;;
8656;SDS011;4366;50.764;7.184;2023-07-31T18:43:51;1.23;;;1.13;;
8656;SDS011;4366;50.764;7.184;2023-07-31T18:48:53;4.70;;;0.90;;
8656;SDS011;4366;50.764;7.184;2023-07-31T18:53:54;1.53;;;1.10;;
8656;SDS011;4366;50.764;7.184;2023-07-31T18:58:56;1.13;;;1.03;;
8656;SDS011;4366;50.764;7.184;2023-07-31T19:03:58;0.90;;;0.90;;
8656;SDS011;4366;50.764;7.184;2023-07-31T19:09:00;1.00;;;0.97;;
8656;SDS011;4366;50.764;7.184;2023-07-31T19:14:04;1.13;;;1.03;;
8656;SDS011;4366;50.764;7.184;2023-07-31T19:19:05;0.83;;;0.83;;
8656;SDS011;4366;50.764;7.184;2023-07-31T19:24:07;0.80;;;0.80;;
8656;SDS011;4366;50.764;7.184;2023-07-31T19:29:09;1.03;;;0.93;;
8656;SDS011;4366;50.764;7.184;2023-07-31T19:34:12;1.20;;;1.10;;
8656;SDS011;4366;50.764;7.184;2023-07-31T19:39:14;1.10;;;1.00;;
8656;SDS011;4366;50.764;7.184;2023-07-31T19:44:15;1.27;;;1.17;;
8656;SDS011;4366;50.764;7.184;2023-07-31T19:49:18;1.00;;;0.90;;
8656;SDS011;4366;50.764;7.184;2023-07-31T19:54:20;0.70;;;0.70;;
8656;SDS011;4366;50.764;7.184;2023-07-31T19:59:21;0.90;;;0.90;;
8656;SDS011;4366;50.764;7.184;2023-07-31T20:04:23;0.97;;;0.97;;
8656;SDS011;4366;50.764;7.184;2023-07-31T20:09:25;1.50;;;0.90;;
8656;SDS011;4366;50.764;7.184;2023-07-31T20:14:26;1.20;;;1.13;;
8656;SDS011;4366;50.764;7.184;2023-07-31T20:19:28;0.87;;;0.87;;
8656;SDS011;4366;50.764;7.184;2023-07-31T20:24:30;0.80;;;0.80;;
8656;SDS011;4366;50.764;7.184;2023-07-31T20:29:32;1.07;;;0.90;;
8656;SDS011;4366;50.764;7.184;2023-07-31T20:34:33;0.90;;;0.90;;
8656;SDS011;4366;50.764;7.184;2023-07-31T20:39:35;0.80;;;0.80;;
8656;SDS011;4366;50.764;7.184;2023-07-31T20:44:36;1.00;;;1.00;;
8656;SDS011;4366;50.764;7.184;2023-07-31T20:49:38;1.20;;;1.07;;
8656;SDS011;4366;50.764;7.184;2023-07-31T20:54:40;1.10;;;0.97;;
8656;SDS011;4366;50.764;7.184;2023-07-31T20:59:41;0.83;;;0.83;;
8656;SDS011;4366;50.764;7.184;2023-07-31T21:04:43;1.10;;;1.00;;
8656;SDS011;4366;50.764;7.184;2023-07-31T21:09:45;0.50;;;0.50;;
8656;SDS011;4366;50.764;7.184;2023-07-31T21:14:48;0.90;;;0.87;;
8656;SDS011;4366;50.764;7.184;2023-07-31T21:19:50;0.67;;;0.60;;
8656;SDS011;4366;50.764;7.184;2023-07-31T21:24:52;1.13;;;0.93;;
8656;SDS011;4366;50.764;7.184;2023-07-31T21:29:54;0.70;;;0.70;;
8656;SDS011;4366;50.764;7.184;2023-07-31T21:34:55;0.60;;;0.60;;
8656;SDS011;4366;50.764;7.184;2023-07-31T21:39:57;0.70;;;0.70;;
8656;SDS011;4366;50.764;7.184;2023-07-31T21:44:59;0.87;;;0.87;;
8656;SDS011;4366;50.764;7.184;2023-07-31T21:50:00;0.83;;;0.83;;
8656;SDS011;4366;50.764;7.184;2023-07-31T21:55:02;0.70;;;0.70;;
8656;SDS011;4366;50.764;7.184;2023-07-31T22:00:04;0.80;;;0.80;;
8656;SDS011;4366;50.764;7.184;2023-07-31T22:05:07;0.77;;;0.77;;
8656;SDS011;4366;50.764;7.184;2023-07-31T22:10:08;1.03;;;0.97;;
8656;SDS011;4366;50.764;7.184;2023-07-31T22:15:10;0.73;;;0.73;;
8656;SDS011;4366;50.764;7.184;2023-07-31T22:20:15;0.60;;;0.60;;
8656;SDS011;4366;50.764;7.184;2023-07-31T22:25:16;0.83;;;0.83;;
8656;SDS011;4366;50.764;7.184;2023-07-31T22:30:18;0.80;;;0.80;;
8656;SDS011;4366;50.764;7.184;2023-07-31T22:35:19;0.60;;;0.60;;
8656;SDS011;4366;50.764;7.184;2023-07-31T22:40:21;0.80;;;0.80;;
8656;SDS011;4366;50.764;7.184;2023-07-31T22:45:23;0.63;;;0.63;;
8656;SDS011;4366;50.764;7.184;2023-07-31T22:50:24;0.80;;;0.80;;
8656;SDS011;4366;50.764;7.184;2023-07-31T22:55:26;0.70;;;0.70;;
8656;SDS011;4366;50.764;7.184;2023-07-31T23:00:28;0.73;;;0.70;;
8656;SDS011;4366;50.764;7.184;2023-07-31T23:05:31;0.53;;;0.53;;
8656;SDS011;4366;50.764;7.184;2023-07-31T23:10:33;0.40;;;0.40;;
8656;SDS011;4366;50.764;7.184;2023-07-31T23:15:35;0.50;;;0.50;;
8656;SDS011;4366;50.764;7.184;2023-07-31T23:20:37;1.20;;;0.50;;
8656;SDS011;4366;50.764;7.184;2023-07-31T23:25:39;0.70;;;0.70;;
8656;SDS011;4366;50.764;7.184;2023-07-31T23:30:40;0.60;;;0.60;;
8656;SDS011;4366;50.764;7.184;2023-07-31T23:35:42;0.60;;;0.60;;
8656;SDS011;4366;50.764;7.184;2023-07-31T23:40:44;0.60;;;0.60;;
8656;SDS011;4366;50.764;7.184;2023-07-31T23:45:46;0.60;;;0.60;;
8656;SDS011;4366;50.764;7.184;2023-07-31T23:50:47;0.30;;;0.30;;
8656;SDS011;4366;50.764;7.184;2023-07-31T23:55:49;0.47;;;0.47;;
